Time;durP1;ratioP1;P1;durP2;ratioP2;P2;SDS_P1;SDS_P2;PMS_P1;PMS_P2;Temp;Humidity;BMP_temperature;BMP_pressure;BME280_temperature;BME280_humidity;BME280_pressure;Samples;Min_cycle;Max_cycle;Signal;HPM_P1;HPM_P2
2023/10/25 00:02:12;;;;;;;6.43;3.15;;;;;;;13.97;84.06;63443.59;5092158;28;20200;-83
2023/10/25 00:04:40;;;;;;;9.35;3.25;;;;;;;13.91;85.48;63438.41;5092880;28;20212;-84
2023/10/25 00:07:08;;;;;;;6.22;3.05;;;;;;;14.07;85.38;63448.88;5084030;28;20227;-86
2023/10/25 00:09:36;;;;;;;9.00;3.28;;;;;;;14.09;85.04;63450.94;5072319;28;20228;-85
2023/10/25 00:12:03;;;;;;;5.43;3.28;;;;;;;14.07;84.93;63449.38;5071336;28;20250;-84
2023/10/25 00:14:31;;;;;;;7.40;3.22;;;;;;;14.01;84.92;63447.75;5072876;28;20227;-83
2023/10/25 00:16:59;;;;;;;8.77;3.58;;;;;;;14.00;85.63;63446.72;5075506;28;20237;-84
2023/10/25 00:19:28;;;;;;;5.20;2.70;;;;;;;14.03;85.39;63444.72;5076863;28;20455;-83
2023/10/25 00:21:55;;;;;;;7.90;3.60;;;;;;;13.78;85.25;63422.38;5091849;28;20483;-85
2023/10/25 00:24:23;;;;;;;6.65;3.25;;;;;;;14.01;85.18;63448.28;5090901;28;20213;-83
2023/10/25 00:26:52;;;;;;;11.43;3.47;;;;;;;14.11;84.21;63458.66;5070535;28;20197;-84
2023/10/25 00:29:20;;;;;;;8.55;3.67;;;;;;;14.17;82.99;63461.81;5072765;28;20227;-84
2023/10/25 00:31:47;;;;;;;5.93;2.88;;;;;;;14.00;83.11;63444.69;5084210;28;20232;-83
2023/10/25 00:34:14;;;;;;;7.18;2.80;;;;;;;14.23;82.30;63468.56;5082494;28;20300;-83
2023/10/25 00:36:46;;;;;;;6.50;2.85;;;;;;;14.41;81.23;63484.72;5088850;28;20204;-83
2023/10/25 00:39:13;;;;;;;6.93;3.10;;;;;;;14.35;81.13;63477.97;5091084;28;20236;-84
2023/10/25 00:41:40;;;;;;;5.15;3.15;;;;;;;14.20;82.04;63470.56;5090075;28;20481;-84
2023/10/25 00:44:08;;;;;;;7.75;3.38;;;;;;;14.46;81.94;63486.81;5084532;28;20222;-84
2023/10/25 00:46:36;;;;;;;11.57;3.30;;;;;;;14.49;81.38;63500.19;5079749;28;20205;-83
2023/10/25 00:49:05;;;;;;;11.63;4.03;;;;;;;14.49;81.60;63495.59;5073720;28;20263;-84
2023/10/25 00:51:32;;;;;;;9.57;4.13;;;;;;;14.48;82.12;63486.34;5073977;28;20251;-84
2023/10/25 00:54:03;;;;;;;7.20;3.45;;;;;;;14.48;82.56;63494.03;5086831;28;20231;-83
2023/10/25 00:56:32;;;;;;;10.63;3.90;;;;;;;14.47;81.72;63496.06;5094104;28;20218;-82
2023/10/25 00:59:00;;;;;;;11.55;3.63;;;;;;;14.21;82.25;63466.50;5094365;28;20252;-83
2023/10/25 01:01:30;;;;;;;12.20;4.18;;;;;;;14.48;81.73;63494.03;5095590;28;20214;-81
2023/10/25 01:03:57;;;;;;;10.13;3.38;;;;;;;14.52;82.00;63495.63;5085701;28;20216;-83
2023/10/25 01:06:25;;;;;;;8.20;3.60;;;;;;;14.70;80.34;63517.38;5094748;28;20196;-80
2023/10/25 01:08:52;;;;;;;15.55;3.58;;;;;;;14.51;81.41;63497.16;5095908;28;20219;-84
2023/10/25 01:11:23;;;;;;;15.00;4.03;;;;;;;14.43;81.81;63493.94;5084282;28;20280;-84
2023/10/25 01:13:51;;;;;;;8.88;3.72;;;;;;;14.59;81.60;63503.41;5077636;28;20213;-84
2023/10/25 01:16:21;;;;;;;6.25;3.75;;;;;;;14.41;81.39;63489.81;5080432;28;20194;-83
2023/10/25 01:18:48;;;;;;;9.90;3.42;;;;;;;14.62;81.22;63509.09;5094683;28;20228;-82
2023/10/25 01:21:15;;;;;;;8.70;3.58;;;;;;;14.67;82.24;63511.19;5095197;28;20193;-83
2023/10/25 01:23:46;;;;;;;10.88;3.67;;;;;;;14.63;82.29;63515.25;5093335;28;20219;-85
2023/10/25 01:26:17;;;;;;;16.85;4.40;;;;;;;14.48;82.06;63491.97;5096592;28;20218;-84
2023/10/25 01:28:49;;;;;;;7.30;4.13;;;;;;;14.59;81.44;63505.97;5096506;28;20216;-84
2023/10/25 01:31:18;;;;;;;11.60;3.60;;;;;;;14.77;81.09;63524.16;5090039;28;20235;-85
2023/10/25 01:33:47;;;;;;;7.35;2.97;;;;;;;14.63;81.25;63504.47;5074502;28;20235;-85
2023/10/25 01:36:14;;;;;;;6.45;3.92;;;;;;;14.56;81.79;63502.34;5090147;28;20192;-82
2023/10/25 01:38:41;;;;;;;6.50;4.05;;;;;;;14.62;81.59;63503.97;5073673;28;20225;-83
2023/10/25 01:41:15;;;;;;;12.55;4.00;;;;;;;14.63;81.10;63510.13;5085459;28;20192;-82
2023/10/25 01:43:43;;;;;;;10.88;3.63;;;;;;;14.32;83.30;63474.84;5095698;28;20215;-84
2023/10/25 01:46:10;;;;;;;7.20;3.60;;;;;;;14.32;84.94;63477.94;5093686;28;20205;-84
2023/10/25 01:48:38;;;;;;;7.53;3.70;;;;;;;14.06;85.26;63450.41;5092533;28;20397;-84
2023/10/25 01:51:06;;;;;;;5.35;2.97;;;;;;;14.31;84.78;63476.38;5084447;28;20333;-84
2023/10/25 01:53:35;;;;;;;9.57;3.42;;;;;;;14.25;85.13;63470.66;5078204;28;20232;-84
2023/10/25 01:56:03;;;;;;;8.25;3.28;;;;;;;14.12;84.67;63457.13;5073918;28;20201;-84
2023/10/25 01:58:31;;;;;;;3.63;2.95;;;;;;;14.21;84.99;63469.03;5088416;28;20212;-83
2023/10/25 02:01:04;;;;;;;7.53;3.00;;;;;;;13.97;84.11;63441.56;5095263;28;20200;-83
2023/10/25 02:03:32;;;;;;;7.72;3.38;;;;;;;14.19;83.92;63464.41;5094411;28;20212;-83
2023/10/25 02:05:59;;;;;;;8.50;2.88;;;;;;;14.18;83.36;63460.81;5092408;28;20197;-85
2023/10/25 02:08:27;;;;;;;11.15;3.13;;;;;;;14.09;83.44;63454.03;5092075;28;20224;-85
2023/10/25 02:10:55;;;;;;;11.80;3.50;;;;;;;14.21;84.08;63469.03;5114238;28;20234;-83
2023/10/25 02:13:22;;;;;;;10.30;3.83;;;;;;;14.23;83.92;63468.03;5114682;28;20232;-84
2023/10/25 02:15:51;;;;;;;9.68;3.85;;;;;;;14.24;84.21;63469.59;5107692;28;20219;-84
2023/10/25 02:18:19;;;;;;;9.43;3.83;;;;;;;14.26;84.42;63471.16;5093446;28;20228;-83
2023/10/25 02:20:46;;;;;;;8.95;3.47;;;;;;;14.30;83.63;63478.41;5090689;28;20228;-83
2023/10/25 02:23:13;;;;;;;12.35;3.38;;;;;;;14.24;83.75;63466.50;5096118;28;20193;-82
2023/10/25 02:25:41;;;;;;;6.45;3.20;;;;;;;14.30;83.39;63478.41;5089049;28;20260;-83
2023/10/25 02:28:09;;;;;;;6.22;2.97;;;;;;;14.14;83.03;63458.69;5078352;28;20200;-83
2023/10/25 02:30:37;;;;;;;12.40;3.85;;;;;;;14.17;83.08;63464.88;5095534;28;20200;-84
2023/10/25 02:33:06;;;;;;;12.98;3.20;;;;;;;13.93;83.22;63436.91;5092727;28;20329;-85
2023/10/25 02:35:34;;;;;;;5.63;3.30;;;;;;;14.27;83.05;63472.22;5081264;28;20198;-84
2023/10/25 02:38:01;;;;;;;13.45;3.25;;;;;;;14.08;83.73;63450.41;5075572;28;20185;-84
2023/10/25 02:40:29;;;;;;;13.73;3.85;;;;;;;14.20;84.34;63465.47;5094977;28;20203;-84
2023/10/25 02:42:57;;;;;;;8.15;3.30;;;;;;;14.14;83.06;63459.22;5091316;28;20196;-84
2023/10/25 02:45:24;;;;;;;15.15;2.85;;;;;;;14.23;82.82;63465.47;5085481;28;20206;-85
2023/10/25 02:47:52;;;;;;;13.20;3.45;;;;;;;14.23;82.82;63468.03;5072748;28;20202;-83
2023/10/25 02:50:22;;;;;;;9.88;2.72;;;;;;;14.26;82.68;63468.59;5074768;28;20277;-84
2023/10/25 02:52:49;;;;;;;7.82;3.60;;;;;;;14.30;81.69;63478.41;5088766;28;20248;-85
2023/10/25 02:55:16;;;;;;;14.77;3.65;;;;;;;14.48;80.65;63496.59;5095129;28;20204;-85
2023/10/25 02:57:45;;;;;;;8.52;3.47;;;;;;;14.62;79.97;63506.53;5092545;28;20200;-84
2023/10/25 03:00:13;;;;;;;6.53;3.50;;;;;;;14.68;79.82;63515.31;5088919;28;20216;-84
2023/10/25 03:02:41;;;;;;;11.85;3.20;;;;;;;14.74;79.75;63521.03;5086448;28;20412;-82
2023/10/25 03:05:08;;;;;;;7.05;3.72;;;;;;;14.69;79.42;63515.84;5090887;28;20288;-84
2023/10/25 03:07:37;;;;;;;15.68;4.35;;;;;;;14.91;78.95;63536.66;5094001;28;20256;-83
2023/10/25 03:10:05;;;;;;;6.65;4.13;;;;;;;14.94;78.57;63537.19;5090860;28;20268;-84
2023/10/25 03:12:33;;;;;;;11.40;3.20;;;;;;;15.05;78.46;63553.75;5092311;28;20250;-85
2023/10/25 03:15:01;;;;;;;18.08;3.92;;;;;;;15.08;76.66;63553.78;5078169;28;20223;-83
2023/10/25 03:17:28;;;;;;;9.15;3.05;;;;;;;15.21;76.22;63567.31;5088099;28;20241;-85
2023/10/25 03:19:56;;;;;;;13.82;4.00;;;;;;;15.35;74.01;63581.31;5090401;28;20278;-83
2023/10/25 03:22:23;;;;;;;10.50;3.30;;;;;;;15.60;70.38;63607.84;5095212;28;20227;-83
2023/10/25 03:24:52;;;;;;;19.15;3.95;;;;;;;15.55;70.38;63607.28;5091496;28;20208;-82
2023/10/25 03:27:20;;;;;;;14.23;3.65;;;;;;;15.71;69.07;63618.75;5093053;28;20199;-82
2023/10/25 03:29:47;;;;;;;10.82;3.10;;;;;;;15.79;69.18;63630.16;5084736;28;20220;-85
2023/10/25 03:32:14;;;;;;;14.15;3.80;;;;;;;15.98;67.42;63649.41;5081373;28;20545;-85
2023/10/25 03:34:43;;;;;;;9.80;3.33;;;;;;;15.93;68.32;63642.16;5087268;28;20258;-82
2023/10/25 03:37:11;;;;;;;11.38;4.20;;;;;;;15.75;70.97;63617.78;5090172;28;20199;-83
2023/10/25 03:39:38;;;;;;;15.95;4.20;;;;;;;15.65;71.46;63612.53;5090265;28;20239;-81
2023/10/25 03:42:07;;;;;;;11.73;3.45;;;;;;;15.19;73.84;63565.22;5104803;28;20238;-81
2023/10/25 03:44:34;;;;;;;13.20;4.47;;;;;;;14.84;77.23;63531.94;5100325;28;20231;-81
2023/10/25 03:47:03;;;;;;;10.98;3.45;;;;;;;14.75;76.98;63516.94;5085120;28;20212;-85
2023/10/25 03:49:30;;;;;;;8.00;4.40;;;;;;;14.77;76.62;63531.84;5071601;28;20266;-81
2023/10/25 03:51:58;;;;;;;8.93;3.97;;;;;;;14.90;77.44;63537.66;5070771;28;20205;-84
2023/10/25 03:54:27;;;;;;;12.13;4.10;;;;;;;14.86;77.18;63533.50;5072966;28;20280;-84
2023/10/25 03:56:54;;;;;;;10.25;4.22;;;;;;;14.80;77.68;63527.78;5084263;28;20199;-82
2023/10/25 03:59:25;;;;;;;9.25;3.72;;;;;;;14.62;78.73;63509.09;5094253;28;20239;-84
2023/10/25 04:01:53;;;;;;;7.93;4.55;;;;;;;14.70;79.08;63519.44;5097263;28;20216;-83
2023/10/25 06:21:52;;;;;;;21.60;4.57;;;;;;;18.76;52.55;63940.44;5169333;27;20796;-84
2023/10/25 06:24:20;;;;;;;21.55;5.32;;;;;;;19.00;51.86;63962.34;5171438;27;20213;-85
2023/10/25 06:26:49;;;;;;;14.88;3.72;;;;;;;19.30;50.82;63996.22;5150906;27;20214;-84
2023/10/25 06:29:17;;;;;;;24.92;5.78;;;;;;;19.52;50.83;64019.16;5153362;27;20264;-83
2023/10/25 06:31:51;;;;;;;38.00;5.68;;;;;;;19.75;48.64;64040.06;5148230;27;20265;-85
2023/10/25 06:34:20;;;;;;;15.38;4.53;;;;;;;20.12;47.44;64078.66;5149200;27;20183;-83
2023/10/25 06:36:48;;;;;;;19.13;4.50;;;;;;;20.10;47.34;64076.56;5146355;27;20222;-83
2023/10/25 06:39:18;;;;;;;26.40;5.32;;;;;;;20.44;47.91;64112.06;5145571;27;20190;-84
2023/10/25 06:41:46;;;;;;;23.88;6.57;;;;;;;20.07;52.59;64070.88;5149590;27;20240;-82
2023/10/25 06:44:15;;;;;;;19.33;5.80;;;;;;;19.52;56.04;64016.59;5153668;27;20190;-82
2023/10/25 06:46:44;;;;;;;17.08;5.13;;;;;;;19.13;57.78;63970.75;5152574;27;20245;-84
2023/10/25 06:49:12;;;;;;;16.67;5.95;;;;;;;19.03;58.00;63965.47;5149263;27;20182;-83
2023/10/25 06:51:42;;;;;;;18.80;4.75;;;;;;;19.28;51.00;63989.47;5146663;27;20277;-84
2023/10/25 06:54:11;;;;;;;19.33;4.45;;;;;;;19.19;53.87;63979.59;5135100;27;20201;-84
2023/10/25 06:56:42;;;;;;;22.27;5.30;;;;;;;19.39;53.88;64000.97;5141486;28;20225;-83
2023/10/25 06:59:10;;;;;;;18.80;5.22;;;;;;;19.48;54.12;64012.44;5164166;27;20193;-85
2023/10/25 07:01:43;;;;;;;20.55;5.57;;;;;;;19.60;52.72;64024.41;5151441;27;20222;-84
2023/10/25 07:04:14;;;;;;;15.73;4.88;;;;;;;19.62;51.44;64024.44;5157616;27;20190;-85
2023/10/25 07:06:47;;;;;;;22.27;4.40;;;;;;;19.94;50.45;64059.88;5154511;27;20244;-84
2023/10/25 07:09:15;;;;;;;28.65;5.03;;;;;;;19.95;50.94;64064.03;5144713;27;20198;-83
2023/10/25 07:11:46;;;;;;;27.00;4.90;;;;;;;20.08;48.77;64072.44;5134523;27;20223;-83
2023/10/25 07:14:13;;;;;;;15.60;3.80;;;;;;;20.33;48.25;64103.69;5150150;27;20178;-84
2023/10/25 07:16:42;;;;;;;21.73;4.47;;;;;;;20.46;46.26;64114.16;5148442;27;20415;-84
2023/10/25 07:19:11;;;;;;;21.88;5.03;;;;;;;20.84;45.06;64153.31;5161197;27;20193;-84
2023/10/25 07:21:38;;;;;;;25.13;5.28;;;;;;;21.12;45.60;64183.06;5151058;27;20478;-84
2023/10/25 07:24:07;;;;;;;19.88;4.78;;;;;;;21.21;47.30;64192.47;5145261;27;20234;-83
2023/10/25 07:26:34;;;;;;;25.25;5.03;;;;;;;21.27;47.53;64200.81;5166027;27;20229;-83
2023/10/25 07:29:03;;;;;;;16.05;6.15;;;;;;;21.36;48.85;64210.75;5147101;27;20198;-84
2023/10/25 07:31:31;;;;;;;26.35;5.78;;;;;;;21.34;48.22;64206.06;5144201;27;20257;-83
2023/10/25 07:33:58;;;;;;;17.45;6.10;;;;;;;20.80;50.16;64149.66;5120852;27;20207;-86
2023/10/25 07:36:26;;;;;;;12.65;5.65;;;;;;;20.69;52.70;64143.34;5134030;27;20244;-84
2023/10/25 07:38:55;;;;;;;11.30;4.90;;;;;;;20.16;52.83;64082.84;5134362;27;20247;-83
2023/10/25 07:41:24;;;;;;;16.73;6.18;;;;;;;19.71;54.11;64041.06;5129694;27;20226;-84
2023/10/25 07:43:52;;;;;;;21.52;5.25;;;;;;;19.57;55.53;64018.72;5131178;27;20266;-83
2023/10/25 07:46:21;;;;;;;9.15;5.20;;;;;;;19.52;55.68;64017.13;5132467;27;20206;-84
2023/10/25 07:48:50;;;;;;;13.00;5.07;;;;;;;19.57;55.41;64024.38;5127413;27;20220;-83
2023/10/25 07:51:17;;;;;;;17.23;6.00;;;;;;;19.61;55.42;64023.41;5122699;27;20373;-82
2023/10/25 07:53:44;;;;;;;18.38;5.68;;;;;;;19.10;56.72;63972.78;5125464;27;20199;-83
2023/10/25 07:56:13;;;;;;;18.50;5.28;;;;;;;18.90;57.24;63955.03;5123350;27;20203;-84
2023/10/25 07:58:43;;;;;;;21.13;8.82;;;;;;;18.70;58.78;63936.75;5123940;27;20283;-84
2023/10/25 08:01:11;;;;;;;20.40;7.90;;;;;;;18.88;58.81;63949.84;5131052;27;20248;-83
2023/10/25 08:03:40;;;;;;;14.48;6.85;;;;;;;19.11;58.86;63971.75;5130716;28;20213;-82
2023/10/25 08:06:09;;;;;;;15.40;6.13;;;;;;;19.13;57.45;63978.50;5119698;28;20213;-83
2023/10/25 08:08:36;;;;;;;20.27;5.47;;;;;;;18.99;57.58;63969.06;5124325;27;20186;-82
2023/10/25 08:11:05;;;;;;;26.55;6.50;;;;;;;18.72;57.62;63928.00;5126069;27;20248;-83
2023/10/25 08:13:35;;;;;;;12.02;5.13;;;;;;;18.83;58.08;63945.16;5125095;27;20207;-82
2023/10/25 08:16:03;;;;;;;11.43;4.55;;;;;;;18.30;57.34;63889.91;5126845;27;20207;-83
2023/10/25 08:18:34;;;;;;;14.90;5.10;;;;;;;18.47;58.18;63907.09;5133071;27;20182;-83
2023/10/25 08:21:03;;;;;;;13.25;5.47;;;;;;;18.69;59.60;63935.22;5120265;28;20235;-82
2023/10/25 08:23:30;;;;;;;15.98;4.95;;;;;;;18.83;58.32;63950.31;5127421;27;20194;-82
2023/10/25 08:26:01;;;;;;;14.88;4.75;;;;;;;18.75;58.68;63934.25;5130041;27;20281;-80
2023/10/25 08:28:27;;;;;;;13.77;4.30;;;;;;;18.53;59.25;63915.94;5136051;27;20192;-82
2023/10/25 08:30:56;;;;;;;11.32;5.00;;;;;;;18.99;58.25;63961.31;5122774;27;20237;-81
2023/10/25 08:33:23;;;;;;;15.93;4.70;;;;;;;18.82;58.08;63943.59;5129474;27;20203;-83
2023/10/25 08:35:50;;;;;;;18.00;5.85;;;;;;;18.61;59.16;63919.13;5119490;27;20207;-82
2023/10/25 08:38:19;;;;;;;18.27;5.72;;;;;;;18.64;60.44;63924.84;5113847;28;20195;-81
2023/10/25 08:40:46;;;;;;;14.30;4.97;;;;;;;19.00;58.14;63965.44;5123837;28;20242;-82
2023/10/25 08:43:18;;;;;;;15.13;4.57;;;;;;;19.23;58.41;63986.84;5131178;27;20198;-83
2023/10/25 08:45:46;;;;;;;14.65;5.38;;;;;;;19.08;58.75;63973.81;5120863;28;20219;-83
2023/10/25 08:48:14;;;;;;;16.92;5.22;;;;;;;19.37;56.07;63998.38;5134057;28;20202;-81
2023/10/25 08:50:42;;;;;;;19.48;5.28;;;;;;;19.13;55.87;63979.00;5131367;27;20219;-82
2023/10/25 08:53:10;;;;;;;15.27;5.15;;;;;;;19.10;56.01;63973.28;5122697;28;20200;-82
2023/10/25 08:55:38;;;;;;;17.17;4.40;;;;;;;19.23;57.02;63988.91;5133768;28;20535;-84
2023/10/25 08:58:06;;;;;;;19.55;4.68;;;;;;;19.39;55.77;64003.03;5131381;27;20240;-83
2023/10/25 09:00:33;;;;;;;19.13;5.20;;;;;;;19.61;55.79;64028.03;5125057;27;20230;-82
2023/10/25 09:03:03;;;;;;;24.42;6.07;;;;;;;19.98;56.26;64072.34;5132489;28;20190;-83
2023/10/25 09:05:41;;;;;;;17.30;5.25;;;;;;;20.25;56.20;64095.34;5127973;28;20267;-82
2023/10/25 09:08:16;;;;;;;14.18;4.55;;;;;;;20.59;53.90;64128.25;5136873;27;20191;-85
2023/10/25 09:10:45;;;;;;;18.88;5.47;;;;;;;20.82;51.11;64149.16;5120384;27;20296;-83
2023/10/25 09:13:14;;;;;;;18.98;5.40;;;;;;;20.95;51.43;64165.31;5114226;28;20183;-85
2023/10/25 09:15:42;;;;;;;25.73;6.78;;;;;;;20.47;50.87;64118.31;5128547;27;20234;-81
2023/10/25 09:18:10;;;;;;;17.55;5.55;;;;;;;20.32;52.25;64096.97;5111437;28;20211;-82
2023/10/25 09:20:38;;;;;;;21.02;5.18;;;;;;;20.42;52.69;64109.97;5113016;28;20254;-84
2023/10/25 09:23:12;;;;;;;20.77;4.07;;;;;;;20.66;52.40;64135.56;5147142;27;20187;-83
2023/10/25 09:25:40;;;;;;;22.25;4.63;;;;;;;20.55;52.98;64123.56;5130516;27;20215;-84
2023/10/25 09:28:16;;;;;;;18.92;5.75;;;;;;;20.91;52.95;64161.16;5122770;27;20552;-83
2023/10/25 09:30:44;;;;;;;15.90;4.28;;;;;;;21.06;51.16;64176.81;5122771;27;20460;-81
2023/10/25 09:33:11;;;;;;;19.55;4.53;;;;;;;21.04;50.95;64174.72;5135064;27;20220;-84
2023/10/25 09:35:45;;;;;;;20.30;5.30;;;;;;;21.17;51.91;64190.91;5148806;27;20226;-82
2023/10/25 09:38:13;;;;;;;18.77;4.88;;;;;;;21.24;51.46;64192.50;5133721;27;20179;-84
2023/10/25 09:40:44;;;;;;;23.30;5.55;;;;;;;21.50;52.09;64222.25;5131272;28;20215;-82
2023/10/25 09:43:16;;;;;;;15.15;5.00;;;;;;;21.63;49.45;64241.00;5134764;27;20198;-84
2023/10/25 09:45:49;;;;;;;16.15;5.35;;;;;;;21.50;50.31;64222.25;5134099;27;20225;-82
2023/10/25 09:48:18;;;;;;;20.15;5.90;;;;;;;21.60;49.81;64232.69;5128104;27;20191;-83
2023/10/25 09:50:54;;;;;;;16.17;6.05;;;;;;;21.74;49.17;64247.31;5121304;27;20215;-83
2023/10/25 09:53:28;;;;;;;32.47;7.22;;;;;;;21.98;46.49;64271.91;5113902;28;20206;-83
2023/10/25 09:56:02;;;;;;;30.88;8.02;;;;;;;22.11;46.04;64285.47;5121864;28;20236;-82
2023/10/25 09:58:34;;;;;;;29.50;6.35;;;;;;;22.40;45.23;64316.31;5130480;28;20190;-85
2023/10/25 10:01:03;;;;;;;32.33;6.07;;;;;;;22.54;45.52;64333.56;5131904;27;20264;-81
2023/10/25 10:03:45;;;;;;;34.30;6.70;;;;;;;22.85;44.46;64363.38;5130069;27;20194;-82
2023/10/25 10:06:27;;;;;;;37.50;6.60;;;;;;;22.96;44.88;64379.56;5132339;28;20222;-83
2023/10/25 10:09:06;;;;;;;34.10;8.48;;;;;;;22.87;43.93;64365.47;5130348;27;20213;-82
2023/10/25 10:11:39;;;;;;;38.55;6.57;;;;;;;23.03;43.83;64384.28;5124590;28;20219;-80
2023/10/25 10:14:30;;;;;;;43.03;7.28;;;;;;;23.39;42.75;64421.97;5125050;28;20191;-82
2023/10/25 10:17:01;;;;;;;43.08;7.28;;;;;;;23.60;42.26;64446.00;5141608;27;20279;-83
2023/10/25 10:19:28;;;;;;;27.05;5.88;;;;;;;23.09;44.28;64392.63;5124340;27;20191;-82
2023/10/25 10:22:06;;;;;;;37.05;7.63;;;;;;;23.19;45.07;64401.03;5127341;28;20230;-83
2023/10/25 10:24:42;;;;;;;20.15;6.30;;;;;;;23.68;45.31;64451.78;5143748;27;20194;-82
2023/10/25 10:27:11;;;;;;;33.00;7.18;;;;;;;23.81;45.06;64460.72;5133961;28;20234;-82
2023/10/25 10:29:42;;;;;;;29.08;7.65;;;;;;;24.06;44.86;64491.56;5115239;28;20678;-82
2023/10/25 10:32:10;;;;;;;30.10;7.95;;;;;;;24.19;42.55;64505.19;5126396;27;20206;-82
2023/10/25 10:34:40;;;;;;;34.35;6.30;;;;;;;24.39;40.66;64525.56;5146000;27;20211;-83
2023/10/25 10:37:09;;;;;;;32.03;6.72;;;;;;;24.61;42.07;64549.13;5130584;28;20265;-82
2023/10/25 10:39:39;;;;;;;37.75;6.85;;;;;;;24.68;41.23;64553.88;5139812;27;20205;-83
2023/10/25 10:42:06;;;;;;;36.85;8.18;;;;;;;24.60;40.59;64545.50;5118670;27;20333;-82
2023/10/25 10:44:38;;;;;;;35.03;9.35;;;;;;;24.98;42.03;64587.91;5134893;28;20198;-83
2023/10/25 10:47:09;;;;;;;50.85;7.85;;;;;;;25.28;39.46;64615.69;5128212;27;20223;-81
2023/10/25 10:49:39;;;;;;;33.25;6.53;;;;;;;25.52;38.31;64648.66;5130008;27;20198;-84
2023/10/25 10:52:07;;;;;;;30.50;5.78;;;;;;;25.49;37.91;64640.81;5120880;28;20234;-81
2023/10/25 10:54:34;;;;;;;22.42;5.88;;;;;;;25.47;37.84;64633.50;5138687;28;20186;-83
2023/10/25 10:57:02;;;;;;;37.85;7.50;;;;;;;24.85;39.08;64568.56;5140406;27;20249;-81
2023/10/25 10:59:30;;;;;;;38.40;7.05;;;;;;;24.95;38.13;64584.25;5142690;27;20199;-83
2023/10/25 11:02:02;;;;;;;33.45;6.68;;;;;;;24.94;38.43;64583.19;5137297;28;20238;-82
2023/10/25 11:04:31;;;;;;;47.78;7.53;;;;;;;24.99;38.88;64588.97;5131691;28;20222;-83
2023/10/25 11:06:58;;;;;;;27.10;6.65;;;;;;;24.81;39.09;64564.38;5130017;27;20219;-84
2023/10/25 11:09:26;;;;;;;34.30;7.22;;;;;;;24.48;38.94;64538.13;5133998;27;20190;-81
2023/10/25 11:12:07;;;;;;;31.20;6.10;;;;;;;24.49;39.44;64536.56;5151840;27;20217;-83
2023/10/25 11:14:42;;;;;;;30.10;6.80;;;;;;;24.21;39.89;64509.88;5133524;27;20258;-80
2023/10/25 11:17:09;;;;;;;32.03;5.55;;;;;;;23.99;40.13;64486.84;5128919;28;20222;-81
2023/10/25 11:19:38;;;;;;;42.60;7.32;;;;;;;24.12;40.56;64495.25;5146912;27;20194;-81
2023/10/25 11:22:07;;;;;;;37.25;7.32;;;;;;;24.13;40.36;64498.88;5152941;27;20225;-82
2023/10/25 11:24:36;;;;;;;43.22;6.82;;;;;;;24.33;39.88;64516.69;5134824;28;20195;-82
2023/10/25 11:27:04;;;;;;;41.13;8.05;;;;;;;24.52;40.05;64539.72;5134310;28;20226;-80
2023/10/25 11:29:33;;;;;;;48.35;6.78;;;;;;;24.88;39.40;64574.31;5130426;27;20217;-85
2023/10/25 11:32:04;;;;;;;29.95;7.32;;;;;;;25.11;38.66;64595.78;5124586;27;20561;-83
2023/10/25 11:34:33;;;;;;;33.05;7.85;;;;;;;24.75;39.57;64563.28;5123571;27;20202;-83
2023/10/25 11:37:04;;;;;;;44.03;7.28;;;;;;;25.11;39.43;64598.38;5130768;27;20218;-82
2023/10/25 11:39:33;;;;;;;39.22;7.68;;;;;;;24.29;40.04;64515.13;5139819;27;20221;-82
2023/10/25 11:42:01;;;;;;;39.38;8.65;;;;;;;24.35;40.15;64516.19;5127067;27;20243;-84
2023/10/25 11:44:28;;;;;;;36.40;7.50;;;;;;;24.71;39.84;64562.22;5133717;27;20244;-81
2023/10/25 11:46:58;;;;;;;57.15;8.38;;;;;;;24.48;40.19;64532.94;5135623;27;20337;-82
2023/10/25 11:49:27;;;;;;;54.33;9.68;;;;;;;24.10;40.67;64492.63;5132782;27;20515;-81
2023/10/25 11:51:58;;;;;;;48.88;8.45;;;;;;;24.07;41.15;64487.41;5134501;27;20215;-84
2023/10/25 11:54:30;;;;;;;28.30;6.53;;;;;;;23.59;41.61;64439.75;5133716;27;20209;-81
2023/10/25 11:56:58;;;;;;;40.28;6.57;;;;;;;23.91;41.82;64473.78;5135546;27;20518;-85
2023/10/25 11:59:25;;;;;;;33.40;7.15;;;;;;;24.44;40.69;64533.41;5144171;27;20186;-85
2023/10/25 12:01:54;;;;;;;38.00;8.57;;;;;;;24.34;41.06;64517.75;5145115;27;20321;-83
2023/10/25 12:04:27;;;;;;;38.47;7.80;;;;;;;24.22;40.96;64505.72;5152477;27;20190;-84
2023/10/25 12:06:56;;;;;;;31.40;6.35;;;;;;;24.04;41.90;64488.94;5135871;27;20221;-83
2023/10/25 12:09:23;;;;;;;34.05;9.18;;;;;;;23.83;41.80;64464.88;5113902;28;20206;-79
2023/10/25 12:11:52;;;;;;;35.05;7.07;;;;;;;23.77;42.64;64453.38;5111641;28;20223;-83
2023/10/25 12:14:20;;;;;;;38.60;9.27;;;;;;;23.62;43.04;64442.91;5114128;28;20266;-81
2023/10/25 12:16:50;;;;;;;39.03;8.02;;;;;;;23.47;43.21;64425.13;5115886;28;20219;-81
2023/10/25 12:19:17;;;;;;;36.35;7.65;;;;;;;23.26;43.57;64407.81;5117408;27;20204;-82
2023/10/25 12:21:44;;;;;;;46.25;9.13;;;;;;;23.37;43.48;64419.34;5112067;28;20231;-82
2023/10/25 12:24:12;;;;;;;31.70;6.85;;;;;;;23.36;43.31;64420.91;5126703;27;20218;-81
2023/10/25 12:26:39;;;;;;;43.67;8.65;;;;;;;23.32;43.85;64412.03;5120148;27;20249;-81
2023/10/25 12:29:08;;;;;;;46.53;8.57;;;;;;;23.10;44.55;64393.69;5131191;27;20201;-81
2023/10/25 12:31:35;;;;;;;40.67;8.88;;;;;;;23.15;44.73;64396.31;5138295;27;20215;-81
2023/10/25 12:34:02;;;;;;;43.10;7.82;;;;;;;23.43;44.32;64423.56;5116227;28;20200;-84
2023/10/25 12:36:29;;;;;;;34.63;6.93;;;;;;;23.70;44.03;64451.78;5113084;28;20253;-83
2023/10/25 12:38:57;;;;;;;39.28;8.23;;;;;;;23.62;44.86;64440.31;5123385;27;20454;-83
2023/10/25 12:41:24;;;;;;;35.88;6.78;;;;;;;23.25;45.45;64407.28;5139097;27;20223;-81
2023/10/25 12:43:52;;;;;;;37.92;8.35;;;;;;;23.23;45.90;64402.59;5131845;28;20194;-83
2023/10/25 12:46:21;;;;;;;40.17;7.80;;;;;;;23.25;46.06;64404.69;5131709;27;20214;-83
2023/10/25 12:48:48;;;;;;;39.45;7.20;;;;;;;23.31;45.85;64410.47;5134201;28;20195;-83
2023/10/25 12:51:22;;;;;;;39.30;7.57;;;;;;;23.42;46.04;64421.97;5137761;27;20218;-83
2023/10/25 12:53:49;;;;;;;47.17;8.48;;;;;;;23.39;46.25;64424.56;5132550;28;20240;-82
2023/10/25 12:56:17;;;;;;;44.10;8.13;;;;;;;23.52;45.38;64430.34;5115862;27;20212;-81
2023/10/25 12:58:44;;;;;;;50.08;9.23;;;;;;;23.38;45.72;64418.31;5114250;28;20199;-82
2023/10/25 13:01:12;;;;;;;48.47;7.80;;;;;;;23.30;45.73;64414.59;5137597;27;20273;-83
2023/10/25 13:03:41;;;;;;;45.10;8.20;;;;;;;23.29;46.15;64411.50;5141438;27;20270;-84
2023/10/25 13:06:12;;;;;;;44.45;7.95;;;;;;;23.49;46.68;64434.50;5141513;27;20214;-83
2023/10/25 13:08:42;;;;;;;38.70;7.22;;;;;;;23.37;47.46;64414.66;5140612;27;20269;-84
2023/10/25 13:11:10;;;;;;;57.47;8.93;;;;;;;23.31;47.89;64413.59;5151437;27;20217;-83
2023/10/25 13:13:37;;;;;;;40.72;8.05;;;;;;;23.18;48.69;64399.97;5153907;27;20253;-84
2023/10/25 13:16:05;;;;;;;50.67;8.93;;;;;;;23.12;49.62;64388.50;5152538;27;20210;-82
2023/10/25 13:18:33;;;;;;;44.80;6.90;;;;;;;23.07;49.55;64383.28;5112128;27;20191;-82
2023/10/25 13:21:02;;;;;;;37.35;7.88;;;;;;;23.02;50.39;64383.22;5110766;28;20242;-82
2023/10/25 13:23:29;;;;;;;32.80;7.68;;;;;;;22.70;51.71;64349.78;5112278;28;20227;-83
2023/10/25 13:25:57;;;;;;;38.92;8.20;;;;;;;22.18;52.96;64295.38;5112667;28;20223;-81
2023/10/25 13:28:24;;;;;;;40.13;9.15;;;;;;;22.23;53.38;64295.94;5130917;28;20210;-82
2023/10/25 13:30:52;;;;;;;57.97;8.00;;;;;;;22.25;53.66;64303.22;5130179;27;20245;-81
2023/10/25 13:33:19;;;;;;;47.13;8.23;;;;;;;22.09;54.35;64288.59;5130230;27;20258;-82
2023/10/25 13:35:48;;;;;;;54.67;8.73;;;;;;;22.08;54.83;64282.88;5125683;28;20219;-81
2023/10/25 13:38:16;;;;;;;43.65;9.07;;;;;;;22.02;54.32;64276.09;5111965;27;20196;-81
2023/10/25 13:40:46;;;;;;;50.83;9.70;;;;;;;21.82;55.34;64262.94;5111421;28;20283;-82
2023/10/25 13:43:15;;;;;;;48.38;9.25;;;;;;;21.89;55.23;64265.59;5110838;28;20555;-82
2023/10/25 13:45:42;;;;;;;46.42;7.80;;;;;;;21.78;55.26;64254.63;5109969;28;20492;-82
2023/10/25 13:48:13;;;;;;;41.13;7.68;;;;;;;21.84;55.31;64257.78;5111033;28;20196;-84
2023/10/25 13:50:42;;;;;;;42.28;9.35;;;;;;;22.09;55.94;64281.31;5113041;28;20211;-83
2023/10/25 13:53:10;;;;;;;35.00;8.82;;;;;;;22.27;54.79;64302.72;5115849;28;20202;-83